createdAt,value
2022-11-27T04:55:54.892Z,7.63
2022-11-27T04:58:31.216Z,8.50
2022-11-27T05:01:01.340Z,8.03
2022-11-27T05:03:30.054Z,8.03
2022-11-27T05:05:59.980Z,8.23
2022-11-27T05:08:32.096Z,8.03
2022-11-27T05:11:08.918Z,8.00
2022-11-27T05:13:38.024Z,8.50
2022-11-27T05:16:05.602Z,8.27
2022-11-27T05:18:33.588Z,8.50
2022-11-27T05:21:06.451Z,8.73
2022-11-27T05:23:37.877Z,8.50
2022-11-27T05:26:05.550Z,8.83
2022-11-27T05:28:35.932Z,8.83
2022-11-27T05:31:04.433Z,8.83
2022-11-27T05:33:37.086Z,8.33
2022-11-27T05:36:04.830Z,7.87
2022-11-27T05:38:34.504Z,8.30
2022-11-27T05:41:02.562Z,8.43
2022-11-27T05:43:30.995Z,8.13
2022-11-27T05:45:58.364Z,8.17
2022-11-27T05:48:25.642Z,8.93
2022-11-27T05:50:54.457Z,8.73
2022-11-27T05:53:21.538Z,8.80
2022-11-27T05:55:49.046Z,9.03
2022-11-27T05:58:16.402Z,10.17
2022-11-27T06:00:46.879Z,10.70
2022-11-27T06:03:22.290Z,11.30
2022-11-27T06:05:50.455Z,11.07
2022-11-27T06:08:17.488Z,12.47
2022-11-27T06:10:45.739Z,11.87
2022-11-27T06:13:13.327Z,12.03
2022-11-27T06:15:41.185Z,12.27
2022-11-27T06:18:08.921Z,11.33
2022-11-27T06:20:40.821Z,11.03
2022-11-27T06:23:10.828Z,11.87
2022-11-27T06:25:38.826Z,9.73
2022-11-27T06:28:06.419Z,10.07
2022-11-27T06:30:38.191Z,9.90
2022-11-27T06:33:13.032Z,9.67
2022-11-27T06:35:45.268Z,10.17
2022-11-27T06:38:14.591Z,9.90
2022-11-27T06:40:43.096Z,9.13
2022-11-27T06:43:14.562Z,9.57
2022-11-27T06:45:41.930Z,8.77
2022-11-27T06:48:09.388Z,9.03
2022-11-27T06:50:37.133Z,8.93
2022-11-27T06:53:04.269Z,8.40
2022-11-27T06:55:30.989Z,9.63
2022-11-27T06:57:57.501Z,9.17
2022-11-27T07:00:24.115Z,9.00
2022-11-27T07:02:54.152Z,8.93
2022-11-27T07:05:20.732Z,9.30
2022-11-27T07:07:47.330Z,9.40
2022-11-27T07:10:14.031Z,9.07
2022-11-27T07:12:40.564Z,8.97
2022-11-27T07:15:08.080Z,9.60
2022-11-27T07:17:34.645Z,8.93
2022-11-27T07:20:01.225Z,8.57
2022-11-27T07:22:27.806Z,8.60
2022-11-27T07:24:55.456Z,8.03
2022-11-27T07:27:22.074Z,8.70
2022-11-27T07:29:48.626Z,8.37
2022-11-27T07:32:15.168Z,8.23
2022-11-27T07:34:42.032Z,7.77
2022-11-27T07:37:12.012Z,7.73
2022-11-27T07:40:00.765Z,8.60
2022-11-27T07:42:40.902Z,10.27
2022-11-27T07:45:08.940Z,9.10
2022-11-27T07:47:35.627Z,8.77
2022-11-27T07:50:02.391Z,9.43
2022-11-27T07:52:29.059Z,10.40
2022-11-27T07:54:55.633Z,10.53
2022-11-27T07:57:22.376Z,11.30
2022-11-27T07:59:48.987Z,10.50
2022-11-27T08:02:15.990Z,9.27
2022-11-27T08:04:43.022Z,15.03
2022-11-27T08:07:09.883Z,11.27
2022-11-27T08:09:37.908Z,7.70
2022-11-27T08:12:05.094Z,8.70
2022-11-27T08:14:31.666Z,8.17
2022-11-27T08:16:58.337Z,11.33
2022-11-27T08:19:25.302Z,9.73
2022-11-27T08:21:51.900Z,9.60
2022-11-27T08:24:18.515Z,9.17
2022-11-27T08:26:45.235Z,11.47
2022-11-27T08:29:12.813Z,10.77
2022-11-27T08:31:39.687Z,10.10
2022-11-27T08:34:06.354Z,8.83
2022-11-27T08:36:33.044Z,8.33
2022-11-27T08:38:59.688Z,8.70
2022-11-27T08:41:26.293Z,8.27
2022-11-27T08:43:52.862Z,8.73
2022-11-27T08:46:19.626Z,8.87
2022-11-27T08:48:46.324Z,8.30
2022-11-27T08:51:15.001Z,8.30
2022-11-27T08:53:44.195Z,7.60
2022-11-27T08:56:18.970Z,7.23
2022-11-27T08:59:17.147Z,7.63
2022-11-27T09:01:44.999Z,7.13
2022-11-27T09:04:15.788Z,7.27
2022-11-27T09:06:46.851Z,7.03
2022-11-27T09:09:27.839Z,7.47
2022-11-27T09:12:00.024Z,7.27
2022-11-27T09:14:31.536Z,7.43
2022-11-27T09:17:04.987Z,7.63
2022-11-27T09:19:35.144Z,6.90
2022-11-27T09:22:08.988Z,7.27
